createdAt,value
2023-04-03T00:12:25.622Z,0.79
2023-04-03T00:27:25.832Z,1.74
2023-04-03T00:42:25.925Z,2.06
2023-04-03T00:57:25.630Z,2.03
2023-04-03T01:12:26.421Z,1.94
2023-04-03T01:42:25.398Z,3.31
2023-04-03T01:57:26.039Z,4.83
2023-04-03T02:27:25.942Z,6.12
2023-04-03T02:42:25.287Z,6.77
2023-04-03T02:57:26.038Z,15.25
2023-04-03T03:12:25.913Z,17.86
2023-04-03T03:27:26.267Z,14.79
2023-04-03T03:57:25.664Z,23.01
2023-04-03T04:12:25.454Z,11.81
2023-04-03T04:27:25.652Z,10.46
2023-04-03T04:42:25.475Z,9.77
2023-04-03T04:57:25.884Z,8.53
2023-04-03T05:12:25.339Z,8.91
2023-04-03T05:27:25.249Z,19.71
2023-04-03T05:42:25.150Z,9.85
2023-04-03T05:57:25.245Z,11.78
2023-04-03T06:27:25.833Z,8.92
2023-04-03T07:12:25.932Z,8.03
2023-04-03T07:27:25.947Z,6.26
2023-04-03T07:57:26.070Z,7.97
2023-04-03T08:12:25.275Z,7.99
2023-04-03T08:42:25.156Z,10.3
2023-04-03T08:57:25.693Z,8.7
2023-04-03T09:12:25.511Z,8.89
2023-04-03T09:27:26.134Z,10.56
2023-04-03T09:42:25.398Z,9.88
2023-04-03T09:57:25.600Z,10.15
2023-04-03T10:12:25.775Z,8.11
2023-04-03T10:27:26.094Z,7.61
2023-04-03T10:57:25.604Z,7.37
2023-04-03T11:12:25.481Z,7.33
2023-04-03T11:42:26.105Z,10.19
2023-04-03T11:57:26.105Z,9.08
2023-04-03T12:12:25.731Z,6.89
2023-04-03T12:27:25.744Z,6.42
2023-04-03T12:57:26.350Z,6.58
2023-04-03T13:12:25.748Z,6.85
2023-04-03T13:42:25.292Z,6.46
2023-04-03T13:57:25.746Z,8.43
2023-04-03T14:12:31.193Z,8.65
2023-04-03T14:42:25.694Z,5.44
2023-04-03T14:57:25.199Z,8.12
2023-04-03T15:12:25.896Z,8
2023-04-03T15:27:25.561Z,13.07
2023-04-03T15:42:25.913Z,10.68
2023-04-03T16:12:25.876Z,6.93
2023-04-03T16:27:25.659Z,7.53
2023-04-03T16:42:25.351Z,6.79
2023-04-03T16:57:25.729Z,6.89
2023-04-03T17:27:25.678Z,8.78
2023-04-03T17:42:25.422Z,7.41
2023-04-03T17:57:25.783Z,8.61
2023-04-03T18:12:25.329Z,8.17
2023-04-03T18:27:25.998Z,7.78
2023-04-03T18:42:25.828Z,7.96
2023-04-03T18:57:25.537Z,7.97
2023-04-03T19:12:25.547Z,7.95
2023-04-03T19:27:25.504Z,8.24
2023-04-03T19:42:25.999Z,7.32
2023-04-03T20:27:25.515Z,5.88
2023-04-03T20:42:26.467Z,5.51
2023-04-03T20:57:25.482Z,4.88
2023-04-03T21:12:25.887Z,8.57
2023-04-03T21:27:25.751Z,5.34
2023-04-03T21:42:30.411Z,5.3
2023-04-03T21:57:26.054Z,4.94
2023-04-03T22:12:25.677Z,5.59
2023-04-03T22:27:25.205Z,5.25
2023-04-03T22:42:25.720Z,5.71
2023-04-03T22:57:25.464Z,5.56
2023-04-03T23:12:25.921Z,5.78
2023-04-03T23:27:25.964Z,7.23
2023-04-03T23:42:26.047Z,7.75
2023-04-03T23:57:25.606Z,7.65
